Bookmark and Share
Track history (hours):
 

John Quigg

More information available from US FCC via Universal Licensing System and Coast Guard Vessel Documentation Center.

Last reported at 2014-Apr-24 06:29 UTC. Time now 2014-Apr-24 14:07 UTC.
Position N 33°44' W 118°16'.

MMSI: 365934954.

NotesDate/timePositionNaut miles runAvg speedWind from/ knotsBaromVisibWave heightAir tempDewpointWater temp
2014-Apr-24 06:29N 33°44' W 118°16'0 0.0
2014-Apr-24 05:33N 33°44' W 118°16'0 0.0
2014-Apr-24 04:33N 33°44' W 118°16'0 0.0
2014-Apr-24 03:26N 33°44' W 118°16'0 0.0
2014-Apr-24 00:11N 33°44' W 118°16'0 0.0
2014-Apr-22 10:13N 33°44' W 118°16'0 0.0
2014-Apr-22 07:31N 33°44' W 118°16'0 0.0
2014-Apr-22 03:33N 33°44' W 118°16'0 0.0
2014-Apr-22 02:33N 33°44' W 118°16'3 0.8
2014-Apr-21 22:27N 33°45' W 118°12'1 1.4
2014-Apr-21 21:33N 33°44' W 118°12'3 0.7
2014-Apr-21 17:14N 33°44' W 118°16'0 0.0
2014-Apr-21 16:34N 33°44' W 118°16'0 0.0
2014-Apr-21 05:33N 33°44' W 118°16'0 0.0
2014-Apr-21 04:33N 33°44' W 118°16'0 0.0
2014-Apr-21 03:33N 33°44' W 118°16'0 0.0
2014-Apr-21 02:14N 33°44' W 118°16'3 4.3
2014-Apr-21 01:33N 33°44' W 118°12'1 1.2
2014-Apr-21 00:16N 33°45' W 118°13'3 3.6
2014-Apr-20 23:29N 33°46' W 118°16'3 2.4
2014-Apr-20 22:11N 33°43' W 118°16'2 3.6
2014-Apr-20 21:30N 33°45' W 118°16'  
2014-Apr-17 21:24N 33°44' W 118°16'0 0.0
2014-Apr-17 19:07N 33°44' W 118°16'2 0.1
2014-Apr-17 04:14N 33°45' W 118°14'0 0.4
2014-Apr-17 03:33N 33°45' W 118°15'2 2.0
2014-Apr-17 02:24N 33°43' W 118°15'1 1.4
2014-Apr-17 01:27N 33°44' W 118°16'0 0.1
2014-Apr-17 00:27N 33°44' W 118°16'1 1.3
2014-Apr-16 23:24N 33°45' W 118°16'2 0.2
2014-Apr-16 08:09N 33°43' W 118°15'3 2.6
2014-Apr-16 07:06N 33°45' W 118°13'2 1.4
2014-Apr-16 05:18N 33°44' W 118°16'2 2.1
2014-Apr-16 04:33N 33°43' W 118°14'2 1.0
2014-Apr-16 02:33N 33°45' W 118°13'0 0.1
2014-Apr-16 01:03N 33°45' W 118°13'1 0.3
2014-Apr-15 23:19N 33°45' W 118°12'0 0.7
2014-Apr-15 22:34N 33°45' W 118°13'2 1.7
2014-Apr-15 21:33N 33°44' W 118°12'2 2.4
2014-Apr-15 20:33N 33°43' W 118°15'3 1.4
2014-Apr-15 18:33N 33°46' W 118°16'2 0.2
2014-Apr-15 08:34N 33°45' W 118°13'2 1.7
2014-Apr-15 07:34N 33°44' W 118°12'3 3.3
2014-Apr-15 06:34N 33°44' W 118°16'0 0.0
2014-Apr-15 05:34N 33°44' W 118°16'1 0.1
2014-Apr-14 23:33N 33°44' W 118°16'0 0.0
2014-Apr-14 22:34N 33°44' W 118°16'  

Dump ship's entire track history

sailing weather and tide predictions

John Quigg — WDB9828 — position and weather